sensor_id;sensor_type;location;lat;lon;timestamp;P1;durP1;ratioP1;P2;durP2;ratioP2
81365;SDS011;70822;51.990;22.766;2023-08-17T00:12:21;15.23;;;10.60;;
81365;SDS011;70822;51.990;22.766;2023-08-17T00:27:31;15.37;;;10.97;;
81365;SDS011;70822;51.990;22.766;2023-08-17T00:42:37;13.30;;;10.23;;
81365;SDS011;70822;51.990;22.766;2023-08-17T00:57:45;16.50;;;10.20;;
81365;SDS011;70822;51.990;22.766;2023-08-17T01:12:53;15.77;;;11.23;;
81365;SDS011;70822;51.990;22.766;2023-08-17T01:28:12;14.60;;;9.77;;
81365;SDS011;70822;51.990;22.766;2023-08-17T01:43:27;17.07;;;12.77;;
81365;SDS011;70822;51.990;22.766;2023-08-17T01:58:32;15.77;;;10.83;;
81365;SDS011;70822;51.990;22.766;2023-08-17T02:13:42;14.73;;;11.20;;
81365;SDS011;70822;51.990;22.766;2023-08-17T02:28:49;17.07;;;12.83;;
81365;SDS011;70822;51.990;22.766;2023-08-17T02:43:58;13.10;;;10.57;;
81365;SDS011;70822;51.990;22.766;2023-08-17T02:59:03;16.57;;;11.40;;
81365;SDS011;70822;51.990;22.766;2023-08-17T03:14:17;15.47;;;11.13;;
81365;SDS011;70822;51.990;22.766;2023-08-17T03:29:24;24.40;;;13.97;;
81365;SDS011;70822;51.990;22.766;2023-08-17T03:44:35;18.67;;;12.03;;
81365;SDS011;70822;51.990;22.766;2023-08-17T03:59:47;14.60;;;9.97;;
81365;SDS011;70822;51.990;22.766;2023-08-17T04:14:55;29.13;;;16.97;;
81365;SDS011;70822;51.990;22.766;2023-08-17T04:30:05;34.93;;;18.03;;
81365;SDS011;70822;51.990;22.766;2023-08-17T04:45:25;14.93;;;11.10;;
81365;SDS011;70822;51.990;22.766;2023-08-17T05:00:32;15.13;;;10.83;;
81365;SDS011;70822;51.990;22.766;2023-08-17T05:15:40;15.97;;;11.93;;
81365;SDS011;70822;51.990;22.766;2023-08-17T05:30:50;13.67;;;11.47;;
81365;SDS011;70822;51.990;22.766;2023-08-17T05:45:58;13.70;;;10.83;;
81365;SDS011;70822;51.990;22.766;2023-08-17T06:01:06;12.93;;;10.23;;
81365;SDS011;70822;51.990;22.766;2023-08-17T06:16:12;10.00;;;8.73;;
81365;SDS011;70822;51.990;22.766;2023-08-17T06:46:44;20.50;;;11.17;;
81365;SDS011;70822;51.990;22.766;2023-08-17T07:01:53;11.67;;;9.00;;
81365;SDS011;70822;51.990;22.766;2023-08-17T07:32:23;9.27;;;7.37;;
81365;SDS011;70822;51.990;22.766;2023-08-17T07:47:29;9.87;;;7.27;;
81365;SDS011;70822;51.990;22.766;2023-08-17T08:02:40;8.90;;;5.70;;
81365;SDS011;70822;51.990;22.766;2023-08-17T08:17:46;7.60;;;5.10;;
81365;SDS011;70822;51.990;22.766;2023-08-17T08:32:51;7.30;;;4.90;;
81365;SDS011;70822;51.990;22.766;2023-08-17T08:47:56;6.00;;;3.93;;
81365;SDS011;70822;51.990;22.766;2023-08-17T09:18:33;3.93;;;3.47;;
81365;SDS011;70822;51.990;22.766;2023-08-17T09:48:48;6.20;;;4.60;;
81365;SDS011;70822;51.990;22.766;2023-08-17T10:03:55;5.60;;;4.10;;
81365;SDS011;70822;51.990;22.766;2023-08-17T10:19:07;5.10;;;4.27;;
81365;SDS011;70822;51.990;22.766;2023-08-17T10:34:23;6.43;;;3.70;;
81365;SDS011;70822;51.990;22.766;2023-08-17T10:49:39;5.17;;;4.10;;
81365;SDS011;70822;51.990;22.766;2023-08-17T11:04:54;3.80;;;3.40;;
81365;SDS011;70822;51.990;22.766;2023-08-17T11:20:04;6.17;;;4.17;;
81365;SDS011;70822;51.990;22.766;2023-08-17T11:50:55;6.97;;;4.50;;
81365;SDS011;70822;51.990;22.766;2023-08-17T12:06:03;5.27;;;3.90;;
81365;SDS011;70822;51.990;22.766;2023-08-17T12:21:19;8.00;;;5.53;;
81365;SDS011;70822;51.990;22.766;2023-08-17T12:36:30;6.17;;;4.33;;
81365;SDS011;70822;51.990;22.766;2023-08-17T12:51:45;6.03;;;4.47;;
81365;SDS011;70822;51.990;22.766;2023-08-17T13:06:55;8.53;;;4.43;;
81365;SDS011;70822;51.990;22.766;2023-08-17T13:22:04;6.07;;;4.27;;
81365;SDS011;70822;51.990;22.766;2023-08-17T13:37:09;10.10;;;4.63;;
81365;SDS011;70822;51.990;22.766;2023-08-17T13:52:22;5.27;;;4.50;;
81365;SDS011;70822;51.990;22.766;2023-08-17T14:07:30;6.93;;;3.93;;
81365;SDS011;70822;51.990;22.766;2023-08-17T14:22:44;6.47;;;3.90;;
81365;SDS011;70822;51.990;22.766;2023-08-17T14:37:51;6.87;;;4.90;;
81365;SDS011;70822;51.990;22.766;2023-08-17T14:52:56;5.90;;;5.30;;
81365;SDS011;70822;51.990;22.766;2023-08-17T15:08:01;7.70;;;5.13;;
81365;SDS011;70822;51.990;22.766;2023-08-17T15:23:07;5.43;;;4.90;;
81365;SDS011;70822;51.990;22.766;2023-08-17T15:38:14;5.60;;;4.40;;
81365;SDS011;70822;51.990;22.766;2023-08-17T15:53:28;7.43;;;4.93;;
81365;SDS011;70822;51.990;22.766;2023-08-17T16:24:15;5.63;;;4.80;;
81365;SDS011;70822;51.990;22.766;2023-08-17T16:39:36;5.93;;;4.57;;
81365;SDS011;70822;51.990;22.766;2023-08-17T16:54:43;4.77;;;3.33;;
81365;SDS011;70822;51.990;22.766;2023-08-17T17:09:52;4.00;;;2.90;;
81365;SDS011;70822;51.990;22.766;2023-08-17T17:24:57;3.77;;;3.10;;
81365;SDS011;70822;51.990;22.766;2023-08-17T17:40:02;6.43;;;3.80;;
81365;SDS011;70822;51.990;22.766;2023-08-17T17:55:21;8.10;;;3.50;;
81365;SDS011;70822;51.990;22.766;2023-08-17T18:10:46;10.00;;;5.90;;
81365;SDS011;70822;51.990;22.766;2023-08-17T18:25:53;3.83;;;3.43;;
81365;SDS011;70822;51.990;22.766;2023-08-17T18:41:18;16.03;;;7.97;;
81365;SDS011;70822;51.990;22.766;2023-08-17T18:56:30;7.10;;;4.83;;
81365;SDS011;70822;51.990;22.766;2023-08-17T19:11:46;10.57;;;6.00;;
81365;SDS011;70822;51.990;22.766;2023-08-17T19:26:58;10.23;;;5.00;;
81365;SDS011;70822;51.990;22.766;2023-08-17T19:42:11;12.40;;;4.90;;
81365;SDS011;70822;51.990;22.766;2023-08-17T19:57:17;8.97;;;6.03;;
81365;SDS011;70822;51.990;22.766;2023-08-17T20:12:40;7.17;;;4.80;;
81365;SDS011;70822;51.990;22.766;2023-08-17T20:27:53;7.27;;;5.30;;
81365;SDS011;70822;51.990;22.766;2023-08-17T20:43:07;9.43;;;6.67;;
81365;SDS011;70822;51.990;22.766;2023-08-17T20:58:14;9.00;;;6.37;;
81365;SDS011;70822;51.990;22.766;2023-08-17T21:13:21;7.13;;;5.50;;
81365;SDS011;70822;51.990;22.766;2023-08-17T21:44:07;6.63;;;5.50;;
81365;SDS011;70822;51.990;22.766;2023-08-17T21:59:13;9.83;;;6.40;;
81365;SDS011;70822;51.990;22.766;2023-08-17T22:14:19;9.97;;;6.90;;
81365;SDS011;70822;51.990;22.766;2023-08-17T22:29:27;8.10;;;6.03;;
81365;SDS011;70822;51.990;22.766;2023-08-17T22:44:38;11.70;;;6.50;;
81365;SDS011;70822;51.990;22.766;2023-08-17T22:59:54;11.50;;;8.07;;
81365;SDS011;70822;51.990;22.766;2023-08-17T23:15:00;14.13;;;8.87;;
81365;SDS011;70822;51.990;22.766;2023-08-17T23:30:14;11.33;;;7.63;;
81365;SDS011;70822;51.990;22.766;2023-08-17T23:45:22;11.73;;;9.43;;
